Time;durP1;ratioP1;P1;durP2;ratioP2;P2;SDS_P1;SDS_P2;PMS_P1;PMS_P2;Temp;Humidity;BMP_temperature;BMP_pressure;BME280_temperature;BME280_humidity;BME280_pressure;Samples;Min_cycle;Max_cycle;Signal;HPM_P1;HPM_P2
2022/08/28 00:01:31;;;;;;;14.68;9.45;;;;;;;24.09;70.97;100046.25;5055455;28;20079;-71
2022/08/28 00:03:58;;;;;;;19.73;10.25;;;;;;;24.26;71.13;100078.31;5049262;28;20028;-71
2022/08/28 00:06:27;;;;;;;18.33;9.27;;;;;;;24.19;70.69;100048.63;5031626;28;20042;-71
2022/08/28 00:08:52;;;;;;;21.58;9.55;;;;;;;24.18;70.17;100044.25;5031587;28;20025;-69
2022/08/28 00:11:19;;;;;;;18.25;9.70;;;;;;;24.27;69.72;100056.31;5032004;28;20036;-73
2022/08/28 00:13:45;;;;;;;18.15;9.30;;;;;;;24.39;69.65;100090.28;5037306;28;20042;-71
2022/08/28 00:16:11;;;;;;;21.33;9.43;;;;;;;24.37;69.74;100083.31;5034357;28;20025;-70
2022/08/28 00:18:37;;;;;;;18.55;9.25;;;;;;;24.31;69.42;100087.00;5070553;28;20487;-68
2022/08/28 00:21:02;;;;;;;21.40;9.60;;;;;;;24.16;70.70;100084.75;5071019;28;20070;-69
2022/08/28 00:23:31;;;;;;;19.35;10.40;;;;;;;24.05;71.38;100087.66;5058340;28;20032;-67
2022/08/28 00:25:58;;;;;;;18.27;9.07;;;;;;;23.82;71.99;100060.06;5051757;28;20056;-70
2022/08/28 00:28:23;;;;;;;16.77;9.20;;;;;;;23.86;72.59;100081.94;5069769;28;20079;-72
2022/08/28 00:30:53;;;;;;;16.63;9.52;;;;;;;23.76;72.78;100044.38;5069800;28;20040;-70
2022/08/28 00:33:26;;;;;;;21.23;9.48;;;;;;;24.08;72.16;100084.94;5071433;28;20409;-71
2022/08/28 00:35:53;;;;;;;21.02;10.00;;;;;;;24.20;71.46;100075.84;5068833;28;20037;-71
2022/08/28 00:38:21;;;;;;;21.75;10.15;;;;;;;24.23;70.35;100081.91;5070046;28;20058;-71
2022/08/28 00:40:49;;;;;;;20.17;9.10;;;;;;;24.10;66.55;100071.72;5071457;28;20020;-69
2022/08/28 00:43:38;;;;;;;18.43;9.63;;;;;;;24.17;69.60;100083.84;5071265;28;20036;-71
2022/08/28 00:46:09;;;;;;;18.73;9.13;;;;;;;24.06;70.04;100071.81;5071838;28;20271;-69
2022/08/28 00:48:35;;;;;;;18.35;9.32;;;;;;;24.13;70.09;100075.16;5071701;28;20028;-70
2022/08/28 00:53:45;;;;;;;19.55;9.32;;;;;;;24.25;70.41;100073.09;5071205;28;20040;-73
2022/08/28 00:56:12;;;;;;;15.70;9.20;;;;;;;24.10;70.70;100072.59;5071671;28;20426;-70
2022/08/28 00:58:41;;;;;;;18.77;9.38;;;;;;;24.02;70.72;100072.78;5071602;28;20056;-68
2022/08/28 01:01:06;;;;;;;23.38;8.68;;;;;;;24.00;68.71;100066.69;5071548;28;20056;-71
2022/08/28 01:03:32;;;;;;;20.65;8.90;;;;;;;24.06;65.89;100068.28;5071407;28;20067;-71
2022/08/28 01:05:58;;;;;;;20.27;9.20;;;;;;;24.04;67.32;100068.34;5071269;28;20036;-68
2022/08/28 01:08:23;;;;;;;17.00;8.35;;;;;;;24.01;66.35;100075.44;5069123;28;20047;-72
2022/08/28 01:10:54;;;;;;;15.07;8.40;;;;;;;23.97;68.27;100081.72;5071145;28;20410;-71
2022/08/28 01:13:19;;;;;;;19.50;9.38;;;;;;;23.95;68.74;100084.41;5071463;28;20055;-68
2022/08/28 01:15:46;;;;;;;21.98;9.02;;;;;;;23.94;69.15;100082.66;5071467;28;20398;-71
2022/08/28 01:18:14;;;;;;;18.77;8.80;;;;;;;23.52;68.57;100017.72;5071300;28;20024;-68
2022/08/28 01:20:51;;;;;;;19.83;8.15;;;;;;;23.95;68.24;100080.88;5070987;28;20024;-72
2022/08/28 01:23:44;;;;;;;17.63;8.82;;;;;;;24.02;67.69;100085.94;5071221;28;20028;-71
2022/08/28 01:26:10;;;;;;;13.55;7.85;;;;;;;23.93;66.00;100082.69;5071077;28;20101;-70
2022/08/28 01:28:35;;;;;;;16.27;8.63;;;;;;;23.79;65.44;100083.88;5070858;28;20040;-68
2022/08/28 01:31:01;;;;;;;19.27;9.32;;;;;;;23.83;65.42;100080.25;5070867;28;20096;-70
2022/08/28 01:33:27;;;;;;;20.52;8.50;;;;;;;23.76;66.92;100073.38;5070854;28;20025;-68
2022/08/28 01:35:52;;;;;;;19.48;9.70;;;;;;;23.49;67.55;100053.81;5070878;28;20067;-70
2022/08/28 01:38:18;;;;;;;18.83;9.82;;;;;;;23.47;68.60;100082.84;5071033;28;20090;-67
2022/08/28 01:40:47;;;;;;;21.30;9.38;;;;;;;23.44;68.62;100077.66;5068647;28;20040;-70
2022/08/28 01:43:18;;;;;;;15.55;8.95;;;;;;;23.50;68.45;100077.50;5070857;28;20073;-71
2022/08/28 01:45:49;;;;;;;22.38;9.40;;;;;;;23.51;69.40;100075.72;5070508;28;20497;-68
2022/08/28 01:48:15;;;;;;;20.42;9.55;;;;;;;23.31;70.05;100068.28;5070484;28;20032;-68
2022/08/28 01:51:01;;;;;;;18.25;9.88;;;;;;;23.33;70.30;100080.53;5070600;28;20399;-68
2022/08/28 01:53:28;;;;;;;16.92;9.40;;;;;;;23.11;71.34;100080.06;5068199;28;20033;-67
2022/08/28 01:55:55;;;;;;;19.77;9.88;;;;;;;22.98;72.66;100090.00;5068083;28;20036;-70
2022/08/28 01:58:22;;;;;;;15.82;10.15;;;;;;;22.69;73.83;100052.00;5068255;28;20043;-70
2022/08/28 02:00:47;;;;;;;21.95;9.95;;;;;;;22.78;74.20;100091.25;5068101;28;20343;-73
2022/08/28 02:03:13;;;;;;;19.20;10.57;;;;;;;22.78;74.19;100088.63;5067886;28;20045;-71
2022/08/28 02:05:39;;;;;;;18.25;9.55;;;;;;;22.87;74.22;100092.00;5067320;28;20032;-70
2022/08/28 02:08:06;;;;;;;20.10;9.82;;;;;;;22.94;73.29;100086.56;5067885;28;20498;-71
2022/08/28 02:10:36;;;;;;;18.90;9.88;;;;;;;22.87;72.49;100065.66;5068142;28;20525;-71
2022/08/28 02:13:02;;;;;;;;;;;;;;;22.72;73.19;100094.00;5068238;28;20052;-69
2022/08/28 02:15:30;;;;;;;25.15;10.02;;;;;;;22.68;73.57;100102.88;5067940;28;19998;-70
2022/08/28 02:17:55;;;;;;;19.70;9.13;;;;;;;22.64;73.38;100095.91;5067749;28;20029;-70
2022/08/28 02:20:21;;;;;;;15.88;9.98;;;;;;;22.50;74.02;100106.69;5067960;28;20082;-75
2022/08/28 02:22:47;;;;;;;18.05;9.43;;;;;;;22.46;74.41;100102.41;5068093;28;20024;-68
2022/08/28 02:25:13;;;;;;;22.00;9.93;;;;;;;22.38;75.18;100099.91;5069765;28;20039;-68
2022/08/28 02:27:39;;;;;;;20.08;9.85;;;;;;;22.10;76.35;100105.59;5070094;28;20040;-71
2022/08/28 02:30:08;;;;;;;18.35;9.40;;;;;;;21.96;77.95;100108.44;5070362;28;20054;-68
2022/08/28 02:32:34;;;;;;;20.38;11.23;;;;;;;21.89;78.78;100105.94;5070344;28;20470;-68
2022/08/28 02:34:59;;;;;;;19.80;10.57;;;;;;;21.96;78.99;100110.22;5070278;28;20055;-71
2022/08/28 02:37:25;;;;;;;22.45;10.85;;;;;;;21.93;78.52;100084.84;5070069;28;20056;-71
2022/08/28 02:39:55;;;;;;;24.20;10.90;;;;;;;22.08;78.74;100103.88;5070075;28;20488;-71
2022/08/28 02:42:20;;;;;;;24.52;11.18;;;;;;;22.15;78.66;100108.16;5070249;28;20494;-74
2022/08/28 02:44:45;;;;;;;23.20;10.32;;;;;;;22.08;78.42;100085.47;5070347;28;20024;-73
2022/08/28 02:47:13;;;;;;;17.73;11.55;;;;;;;22.24;78.17;100105.38;5070023;28;20032;-70
2022/08/28 02:49:39;;;;;;;20.77;10.05;;;;;;;22.29;77.81;100100.91;5070052;28;20410;-71
2022/08/28 02:52:05;;;;;;;18.42;10.38;;;;;;;22.49;76.37;100117.25;5070090;28;20032;-68
2022/08/28 02:54:31;;;;;;;20.98;10.07;;;;;;;22.40;74.99;100108.63;5069848;28;20025;-74
2022/08/28 02:56:57;;;;;;;18.55;10.25;;;;;;;22.50;74.70;100119.84;5069987;28;20036;-70
2022/08/28 02:59:23;;;;;;;20.33;9.73;;;;;;;22.49;75.17;100118.09;5051045;28;20032;-70
2022/08/28 03:01:49;;;;;;;17.65;10.32;;;;;;;22.41;76.41;100123.50;5055325;28;20470;-71
2022/08/28 03:04:15;;;;;;;18.58;10.65;;;;;;;22.30;77.78;100131.53;5031185;28;20044;-70
2022/08/28 03:06:40;;;;;;;21.73;10.52;;;;;;;22.19;78.25;100122.97;5049779;28;20036;-70
2022/08/28 03:09:06;;;;;;;21.42;10.85;;;;;;;21.98;78.41;100090.91;5049678;28;20457;-70
2022/08/28 03:11:32;;;;;;;17.98;11.45;;;;;;;22.19;78.77;100127.38;5050308;28;20033;-68
2022/08/28 03:14:00;;;;;;;23.50;11.07;;;;;;;22.09;78.97;100118.75;5049345;28;20111;-72
2022/08/28 03:16:26;;;;;;;20.98;11.23;;;;;;;21.81;79.04;100085.91;5049779;28;20495;-67
2022/08/28 03:18:51;;;;;;;18.00;10.48;;;;;;;22.06;78.42;100129.34;5051150;28;20040;-72
2022/08/28 03:21:17;;;;;;;22.17;10.25;;;;;;;22.14;76.75;100125.69;5053353;28;20017;-71
2022/08/28 03:23:42;;;;;;;21.73;9.90;;;;;;;22.18;76.32;100134.41;5053191;28;20039;-70
2022/08/28 03:26:14;;;;;;;23.23;9.90;;;;;;;22.21;75.47;100133.50;5053598;28;20055;-69
2022/08/28 03:28:43;;;;;;;20.40;10.13;;;;;;;22.30;75.42;100136.81;5053200;28;20498;-69
2022/08/28 03:31:12;;;;;;;24.10;10.63;;;;;;;22.12;74.73;100098.56;5052769;28;20025;-70
2022/08/28 03:33:40;;;;;;;16.48;9.95;;;;;;;22.30;75.14;100139.44;5053179;28;20571;-72
2022/08/28 03:36:07;;;;;;;18.92;10.20;;;;;;;22.04;75.64;100108.31;5053109;28;20037;-69
2022/08/28 03:38:33;;;;;;;19.13;9.95;;;;;;;22.13;76.25;100145.00;5053177;28;20510;-67
2022/08/28 03:40:58;;;;;;;19.30;10.27;;;;;;;22.07;75.84;100147.72;5053358;28;20065;-69
2022/08/28 03:43:24;;;;;;;21.10;10.48;;;;;;;22.05;76.35;100146.84;5052903;28;20064;-67
2022/08/28 03:45:56;;;;;;;21.45;10.70;;;;;;;22.08;76.65;100148.56;5052809;28;20066;-71
2022/08/28 03:48:23;;;;;;;16.00;10.10;;;;;;;22.00;76.13;100140.81;5052923;28;20029;-69
2022/08/28 03:50:49;;;;;;;23.77;10.82;;;;;;;21.98;76.62;100147.84;5052804;28;20562;-70
2022/08/28 03:53:15;;;;;;;17.48;10.07;;;;;;;21.96;77.05;100155.75;5053006;28;20044;-70
2022/08/28 03:55:41;;;;;;;16.88;10.00;;;;;;;21.64;77.10;100127.31;5053146;28;20028;-70
2022/08/28 03:58:07;;;;;;;19.42;10.40;;;;;;;21.56;77.42;100116.03;5052447;28;20025;-69
2022/08/28 04:00:33;;;;;;;17.65;9.23;;;;;;;21.76;77.21;100161.31;5052590;28;20111;-71
2022/08/28 04:02:59;;;;;;;21.02;10.80;;;;;;;21.63;77.66;100147.50;5051270;28;20052;-72
2022/08/28 04:05:25;;;;;;;18.80;10.15;;;;;;;21.74;77.25;100160.44;5052539;28;20499;-71
2022/08/28 04:07:51;;;;;;;19.35;10.02;;;;;;;21.67;76.97;100136.91;5052953;28;20552;-70
2022/08/28 04:10:16;;;;;;;21.23;10.93;;;;;;;21.85;77.02;100162.94;5052739;28;20475;-68
2022/08/28 04:12:43;;;;;;;20.85;10.25;;;;;;;21.83;76.56;100164.72;5052370;28;20033;-68
2022/08/28 04:15:09;;;;;;;24.27;10.02;;;;;;;21.80;76.33;100164.75;5051940;28;20070;-69
2022/08/28 04:17:37;;;;;;;21.00;10.23;;;;;;;21.81;74.69;100158.63;5052225;28;20429;-69
2022/08/28 04:20:04;;;;;;;19.10;9.88;;;;;;;21.79;74.77;100166.53;5033595;28;20565;-70
2022/08/28 04:22:29;;;;;;;20.38;9.23;;;;;;;21.76;74.79;100174.44;5052447;28;20032;-68
2022/08/28 04:24:55;;;;;;;32.78;11.30;;;;;;;21.80;75.25;100159.50;5052472;28;20033;-68
2022/08/28 04:27:20;;;;;;;20.77;11.00;;;;;;;21.90;76.21;100171.63;5052401;28;20083;-69
2022/08/28 04:29:47;;;;;;;20.45;11.05;;;;;;;21.96;77.56;100168.03;5051742;28;20492;-68
2022/08/28 04:32:13;;;;;;;23.50;10.15;;;;;;;21.96;78.06;100171.53;5052310;28;20029;-71
2022/08/28 04:34:39;;;;;;;22.08;11.75;;;;;;;22.05;77.97;100170.53;5052332;28;20063;-68
2022/08/28 04:37:05;;;;;;;16.67;11.13;;;;;;;22.08;79.49;100165.22;5052369;28;20471;-68
2022/08/28 04:39:31;;;;;;;22.10;11.88;;;;;;;21.99;80.99;100167.97;5052212;28;20610;-72
2022/08/28 04:41:56;;;;;;;24.20;11.63;;;;;;;21.99;81.64;100178.50;5045307;28;20090;-68
2022/08/28 04:44:22;;;;;;;24.98;12.25;;;;;;;21.71;81.82;100139.50;5049373;28;20441;-70
2022/08/28 04:46:47;;;;;;;26.77;11.68;;;;;;;21.99;81.64;100183.75;5046348;28;20062;-69
2022/08/28 04:49:14;;;;;;;17.40;11.80;;;;;;;22.01;81.87;100171.47;5051769;28;20094;-68
2022/08/28 04:51:40;;;;;;;17.73;11.57;;;;;;;22.05;81.42;100169.66;5048025;28;20025;-69
2022/08/28 04:54:06;;;;;;;19.83;11.77;;;;;;;21.98;80.78;100163.63;5052929;28;20033;-68
2022/08/28 04:56:33;;;;;;;21.77;11.60;;;;;;;21.98;80.85;100160.97;5065047;28;20039;-69
2022/08/28 04:59:02;;;;;;;18.67;11.30;;;;;;;21.89;81.25;100171.66;5070890;28;20032;-70
2022/08/28 05:01:28;;;;;;;18.23;11.00;;;;;;;21.92;81.38;100175.09;5070182;28;20021;-69
2022/08/28 05:03:56;;;;;;;18.42;10.43;;;;;;;22.00;81.18;100166.25;5070790;28;20029;-68
2022/08/28 05:06:25;;;;;;;21.63;11.45;;;;;;;21.92;81.18;100167.22;5070926;28;20056;-66
2022/08/28 05:08:55;;;;;;;17.07;10.50;;;;;;;21.92;80.86;100159.34;5070315;28;20024;-68
2022/08/28 05:11:23;;;;;;;19.48;11.32;;;;;;;21.83;80.61;100137.56;5070651;28;20017;-69
2022/08/28 05:13:50;;;;;;;19.67;10.50;;;;;;;22.04;80.37;100166.16;5070477;28;20059;-70
2022/08/28 05:16:16;;;;;;;26.88;15.27;;;;;;;22.06;80.34;100168.78;5070498;28;20052;-70
2022/08/28 05:18:43;;;;;;;17.40;10.45;;;;;;;22.00;81.02;100176.75;5070231;28;20024;-69
2022/08/28 05:21:19;;;;;;;17.40;11.40;;;;;;;21.97;80.96;100169.78;5069100;28;20048;-68
2022/08/28 05:23:50;;;;;;;19.45;11.57;;;;;;;21.89;80.64;100169.88;5070612;28;20136;-66
2022/08/28 05:26:17;;;;;;;21.67;12.45;;;;;;;21.96;79.59;100170.66;5070164;28;20032;-70
2022/08/28 05:28:43;;;;;;;17.42;11.05;;;;;;;21.76;79.34;100131.56;5069837;28;20024;-69
2022/08/28 05:31:16;;;;;;;24.48;12.52;;;;;;;22.04;78.69;100174.03;5070400;28;20024;-68
2022/08/28 05:33:43;;;;;;;20.65;11.40;;;;;;;21.91;78.60;100169.88;5070179;28;20090;-67
2022/08/28 05:36:10;;;;;;;17.85;12.73;;;;;;;21.77;77.58;100126.28;5070131;28;20020;-71
2022/08/28 05:38:36;;;;;;;27.00;13.20;;;;;;;22.11;78.74;100183.56;5070059;28;20036;-67
2022/08/28 05:41:02;;;;;;;21.20;14.23;;;;;;;22.16;78.38;100185.25;5068769;28;20024;-67
2022/08/28 05:43:30;;;;;;;21.17;13.25;;;;;;;22.24;78.18;100186.00;5069912;28;20096;-67
2022/08/28 05:46:00;;;;;;;24.95;14.98;;;;;;;22.11;78.96;100195.84;5070235;28;20036;-68
2022/08/28 05:48:30;;;;;;;22.85;16.33;;;;;;;22.22;78.86;100198.31;5070083;28;20494;-69
2022/08/28 05:51:18;;;;;;;22.90;14.68;;;;;;;22.24;78.81;100192.16;5069666;28;20036;-70
2022/08/28 05:53:44;;;;;;;23.63;13.98;;;;;;;22.40;77.90;100192.78;5069873;28;20025;-70
2022/08/28 05:56:13;;;;;;;31.20;15.90;;;;;;;22.60;77.72;100194.22;5070018;28;20406;-66
2022/08/28 05:58:39;;;;;;;24.10;14.13;;;;;;;22.71;76.90;100197.53;5069577;28;20409;-67
2022/08/28 06:01:16;;;;;;;20.80;13.48;;;;;;;22.86;76.16;100198.16;5069750;28;20115;-66
2022/08/28 06:03:45;;;;;;;23.15;14.93;;;;;;;22.77;77.86;100191.31;5069589;28;20032;-68
2022/08/28 06:06:11;;;;;;;28.75;15.38;;;;;;;22.76;76.44;100194.81;5069584;28;20027;-69
2022/08/28 06:08:38;;;;;;;32.40;16.23;;;;;;;22.90;75.38;100202.47;5069861;28;20032;-66
2022/08/28 06:11:04;;;;;;;22.95;16.35;;;;;;;;;;5069580;28;20483;-66
2022/08/28 06:13:31;;;;;;;25.38;16.92;;;;;;;22.93;74.82;100173.47;5069858;28;20045;-68
2022/08/28 06:15:57;;;;;;;24.05;16.42;;;;;;;23.27;74.33;100199.16;5067364;28;20033;-67
2022/08/28 06:18:23;;;;;;;24.58;17.05;;;;;;;23.40;73.36;100205.03;5069680;28;20039;-68
2022/08/28 06:20:48;;;;;;;29.48;17.50;;;;;;;23.50;72.86;100203.97;5065272;28;20116;-69
2022/08/28 06:23:18;;;;;;;28.00;16.88;;;;;;;23.54;73.16;100208.28;5069674;28;20112;-69
2022/08/28 06:25:45;;;;;;;;;;;;;;;23.65;72.03;100205.41;5070093;28;20021;-69
2022/08/28 06:28:13;;;;;;;25.60;17.83;;;;;;;23.79;71.80;100201.59;5069539;28;19945;-70
2022/08/28 06:30:40;;;;;;;36.22;17.65;;;;;;;23.93;71.64;100207.47;5069364;28;20025;-69
2022/08/28 06:33:06;;;;;;;26.27;17.13;;;;;;;24.15;70.58;100206.97;5069455;28;20108;-69
2022/08/28 06:35:33;;;;;;;23.08;17.25;;;;;;;24.32;69.63;100199.50;5062639;28;20410;-66
2022/08/28 06:37:59;;;;;;;37.38;19.13;;;;;;;24.51;67.85;100194.66;5049809;28;20487;-67
2022/08/28 06:40:26;;;;;;;27.35;17.05;;;;;;;24.59;68.14;100206.81;5049940;28;20048;-69
2022/08/28 06:42:51;;;;;;;30.25;17.83;;;;;;;24.73;67.44;100202.06;5049975;28;20100;-67
2022/08/28 06:45:18;;;;;;;36.70;18.50;;;;;;;24.81;70.19;100204.50;5050072;28;20055;-69
2022/08/28 06:47:43;;;;;;;30.63;18.38;;;;;;;24.74;71.60;100205.59;5049579;28;20037;-67
2022/08/28 06:50:09;;;;;;;29.17;16.92;;;;;;;24.77;69.24;100200.22;5047661;28;20040;-67
2022/08/28 06:52:34;;;;;;;27.08;17.13;;;;;;;24.68;69.70;100204.81;5051490;28;20510;-69
2022/08/28 06:55:00;;;;;;;34.08;18.10;;;;;;;24.78;67.79;100201.94;5053686;28;20063;-66
2022/08/28 06:57:25;;;;;;;28.00;18.27;;;;;;;24.90;69.11;100201.63;5053878;28;20033;-68
2022/08/28 06:59:57;;;;;;;30.60;18.60;;;;;;;25.04;66.98;100198.59;5053757;28;20040;-67
2022/08/28 07:02:23;;;;;;;39.25;20.80;;;;;;;25.30;66.10;100199.66;5053995;28;20036;-70
2022/08/28 07:04:52;;;;;;;30.92;18.98;;;;;;;25.46;65.81;100200.97;5053707;28;20029;-73
2022/08/28 07:07:18;;;;;;;30.08;19.23;;;;;;;25.49;67.49;100202.66;5054016;28;20074;-70
2022/08/28 07:09:44;;;;;;;33.00;19.42;;;;;;;25.32;67.65;100145.84;5053682;28;20037;-66
2022/08/28 07:12:13;;;;;;;25.85;19.55;;;;;;;25.77;70.59;100199.19;5051506;28;20056;-66
2022/08/28 07:14:38;;;;;;;29.13;19.83;;;;;;;25.78;68.89;100187.69;5034659;28;20426;-65
2022/08/28 07:17:06;;;;;;;29.83;19.52;;;;;;;25.91;67.48;100186.41;5053318;28;20052;-69
2022/08/28 07:19:32;;;;;;;34.03;21.00;;;;;;;25.97;66.17;100169.47;5053764;28;20041;-71
2022/08/28 07:21:58;;;;;;;37.47;21.05;;;;;;;26.28;65.86;100193.19;5053510;28;20021;-68
2022/08/28 07:24:23;;;;;;;33.55;19.50;;;;;;;26.42;69.47;100183.94;5053486;28;20033;-65
2022/08/28 07:26:49;;;;;;;31.08;18.88;;;;;;;26.15;66.77;100141.59;5053192;28;20101;-69
2022/08/28 07:29:15;;;;;;;25.20;18.48;;;;;;;26.62;63.53;100185.91;5052799;28;20047;-66
2022/08/28 07:31:44;;;;;;;31.38;19.25;;;;;;;26.73;65.10;100183.75;5053481;28;20440;-69
2022/08/28 07:34:11;;;;;;;34.95;19.55;;;;;;;26.78;65.48;100173.91;5053403;28;20029;-66
2022/08/28 07:36:37;;;;;;;26.50;17.92;;;;;;;26.95;64.42;100186.56;5053704;28;20021;-67
2022/08/28 07:39:04;;;;;;;29.13;18.55;;;;;;;27.00;63.10;100196.97;5052929;28;20036;-68
2022/08/28 07:41:32;;;;;;;23.52;17.70;;;;;;;27.13;60.41;100179.72;5052977;28;20025;-70
2022/08/28 07:46:43;;;;;;;26.63;18.85;;;;;;;27.47;64.99;100193.53;5053265;28;20070;-66
2022/08/28 07:49:09;;;;;;;26.83;15.68;;;;;;;27.49;61.31;100191.69;5034382;28;20041;-70
2022/08/28 07:51:35;;;;;;;28.15;16.77;;;;;;;27.54;61.43;100187.06;5053175;28;20036;-72
2022/08/28 07:54:02;;;;;;;23.60;14.68;;;;;;;27.66;57.94;100188.38;5053183;28;20033;-70
2022/08/28 07:56:28;;;;;;;25.55;15.18;;;;;;;27.82;59.13;100190.44;5050539;28;20035;-69
2022/08/28 07:58:56;;;;;;;25.70;14.40;;;;;;;27.93;56.67;100188.22;5052670;28;20495;-67
2022/08/28 08:01:22;;;;;;;25.60;13.88;;;;;;;27.95;58.51;100177.53;5052885;28;20028;-69
2022/08/28 08:03:49;;;;;;;21.73;12.13;;;;;;;27.98;60.06;100182.75;5051574;28;20483;-66
2022/08/28 08:06:15;;;;;;;22.52;12.73;;;;;;;27.89;58.21;100141.53;5052524;28;20379;-71
2022/08/28 08:08:40;;;;;;;21.45;11.38;;;;;;;28.16;55.92;100166.06;5052763;28;20083;-70
2022/08/28 08:11:13;;;;;;;23.88;11.55;;;;;;;28.36;55.44;100173.22;5052473;28;20029;-69
2022/08/28 08:13:39;;;;;;;18.02;11.05;;;;;;;28.50;54.19;100170.00;5052827;28;20061;-66
2022/08/28 08:16:18;;;;;;;24.30;11.18;;;;;;;28.68;53.70;100170.16;5052389;28;20445;-73
2022/08/28 08:18:44;;;;;;;17.20;8.73;;;;;;;28.72;52.53;100175.28;5052470;28;20033;-69
2022/08/28 08:21:12;;;;;;;19.52;9.90;;;;;;;28.72;53.46;100167.31;5052162;28;20111;-69
2022/08/28 08:23:38;;;;;;;27.88;11.13;;;;;;;28.79;57.53;100175.88;5052120;28;20060;-65
2022/08/28 08:26:10;;;;;;;19.90;10.52;;;;;;;28.82;58.74;100164.25;5052390;28;20044;-67
2022/08/28 08:28:37;;;;;;;26.38;10.20;;;;;;;28.88;57.80;100170.13;5052211;28;20498;-69
2022/08/28 08:31:13;;;;;;;21.90;10.70;;;;;;;28.87;56.42;100171.09;5052091;28;20035;-66
2022/08/28 08:33:41;;;;;;;20.73;8.98;;;;;;;28.70;52.55;100141.75;5052073;28;20491;-69
2022/08/28 08:36:09;;;;;;;17.60;7.87;;;;;;;29.02;53.40;100166.88;5052149;28;20029;-69
2022/08/28 08:38:36;;;;;;;19.95;9.10;;;;;;;29.14;51.78;100165.44;5051905;28;20447;-66
2022/08/28 08:41:10;;;;;;;24.48;8.75;;;;;;;29.33;52.09;100167.31;5052289;28;20398;-70
2022/08/28 08:44:10;;;;;;;20.25;8.90;;;;;;;29.51;52.73;100171.75;5051958;28;20115;-67
2022/08/28 08:46:35;;;;;;;19.08;8.45;;;;;;;29.60;55.46;100156.31;5050678;28;20029;-66
2022/08/28 08:49:05;;;;;;;17.13;8.57;;;;;;;29.71;52.06;100167.31;5051904;28;20044;-66
2022/08/28 08:51:40;;;;;;;15.68;8.30;;;;;;;29.80;52.24;100158.88;5051770;28;20029;-68
2022/08/28 08:54:10;;;;;;;18.92;8.27;;;;;;;29.94;51.14;100160.03;5051318;28;20029;-67
2022/08/28 08:56:38;;;;;;;17.90;8.50;;;;;;;30.02;53.05;100158.72;5051668;28;20559;-67
2022/08/28 08:59:09;;;;;;;22.83;8.40;;;;;;;30.03;51.96;100148.91;5050862;28;20040;-65
2022/08/28 09:02:00;;;;;;;24.23;8.30;;;;;;;30.13;48.47;100159.97;5051401;28;20029;-67
2022/08/28 09:04:28;;;;;;;25.20;8.05;;;;;;;30.31;48.65;100156.41;5048906;28;20027;-66
2022/08/28 09:07:00;;;;;;;24.17;7.60;;;;;;;30.52;47.38;100156.28;5051269;28;20029;-68
2022/08/28 09:09:32;;;;;;;14.85;7.25;;;;;;;30.72;45.45;100149.91;5048983;28;20029;-67
2022/08/28 09:12:08;;;;;;;17.80;7.43;;;;;;;30.91;45.31;100156.94;5051206;28;20502;-69
2022/08/28 09:14:43;;;;;;;14.82;7.20;;;;;;;30.95;45.75;100122.03;5031100;28;20045;-70
2022/08/28 09:17:14;;;;;;;21.30;7.85;;;;;;;31.24;43.82;100140.09;5049085;28;20021;-69
2022/08/28 09:19:41;;;;;;;20.38;7.35;;;;;;;31.06;46.80;100094.78;5048567;28;20145;-71
2022/08/28 09:22:06;;;;;;;19.70;6.90;;;;;;;31.46;47.80;100143.28;5051385;28;20017;-69
2022/08/28 09:24:35;;;;;;;12.77;7.00;;;;;;;31.57;45.58;100145.34;5050967;28;20052;-69
2022/08/28 09:27:08;;;;;;;22.02;6.93;;;;;;;31.61;42.10;100143.38;5048858;28;20498;-69
2022/08/28 09:29:38;;;;;;;15.82;6.60;;;;;;;31.70;42.93;100139.34;5049518;28;20051;-69
2022/08/28 09:32:29;;;;;;;16.90;6.85;;;;;;;31.62;45.12;100105.06;5050367;28;20483;-69
2022/08/28 09:35:07;;;;;;;15.82;7.05;;;;;;;31.95;42.06;100133.47;5048971;28;20025;-66
2022/08/28 09:37:34;;;;;;;31.08;7.18;;;;;;;31.96;43.49;100118.31;5048482;28;20024;-68
2022/08/28 09:40:22;;;;;;;15.82;6.28;;;;;;;32.08;42.64;100133.63;5050091;28;20495;-70
2022/08/28 09:43:25;;;;;;;17.70;6.13;;;;;;;32.22;43.48;100130.16;5049831;28;20039;-68
2022/08/28 09:46:01;;;;;;;16.83;7.10;;;;;;;32.31;41.54;100129.59;5008774;28;20056;-72
2022/08/28 09:48:31;;;;;;;23.20;6.75;;;;;;;32.03;37.19;100064.47;5028350;28;20037;-69
2022/08/28 09:51:04;;;;;;;20.33;6.60;;;;;;;32.55;42.07;100121.94;5027803;28;20040;-66
2022/08/28 09:53:37;;;;;;;18.08;6.38;;;;;;;32.55;38.28;100099.69;5027266;28;20033;-66
2022/08/28 09:56:16;;;;;;;13.20;6.40;;;;;;;32.83;39.28;100124.78;5027888;28;20128;-69
2022/08/28 09:58:54;;;;;;;18.67;6.40;;;;;;;32.98;41.16;100115.78;5028005;28;20037;-69
2022/08/28 10:01:41;;;;;;;19.33;7.03;;;;;;;33.03;35.65;100111.00;5030082;28;20083;-70
2022/08/28 10:04:48;;;;;;;12.82;5.75;;;;;;;33.19;34.86;100112.72;5027816;28;20049;-68
2022/08/28 10:07:21;;;;;;;14.90;5.72;;;;;;;33.24;34.30;100107.94;4987752;28;20485;-68
2022/08/28 10:10:23;;;;;;;13.40;6.10;;;;;;;33.45;35.68;100108.38;4986966;28;20043;-71
2022/08/28 10:12:58;;;;;;;22.17;6.22;;;;;;;33.38;33.23;100099.88;4985712;28;20085;-71
2022/08/28 10:16:00;;;;;;;17.35;5.88;;;;;;;33.52;33.42;100099.00;4978312;28;20114;-68
2022/08/28 10:18:35;;;;;;;20.42;5.55;;;;;;;33.58;31.23;100099.56;4978729;28;20081;-70
2022/08/28 10:21:28;;;;;;;15.77;5.28;;;;;;;33.64;30.90;100091.97;4971427;28;20035;-67
2022/08/28 10:24:11;;;;;;;15.52;5.82;;;;;;;33.91;33.08;100088.47;4987571;28;20049;-69
2022/08/28 10:27:17;;;;;;;22.50;6.05;;;;;;;34.17;37.17;100097.41;4988115;28;20030;-68
2022/08/28 10:30:14;;;;;;;18.60;5.60;;;;;;;34.39;30.08;100092.44;4992316;28;20034;-69
2022/08/28 10:33:17;;;;;;;18.65;5.45;;;;;;;34.53;29.39;100097.66;4972253;28;20034;-67
2022/08/28 10:35:47;;;;;;;22.80;5.30;;;;;;;34.63;29.57;100093.41;4933042;29;20040;-68
2022/08/28 10:38:17;;;;;;;21.85;5.68;;;;;;;34.73;28.32;100092.75;4933103;29;20047;-73
2022/08/28 10:41:04;;;;;;;17.45;5.30;;;;;;;34.77;29.30;100094.22;4933177;29;20178;-70
2022/08/28 10:43:30;;;;;;;17.00;5.88;;;;;;;34.81;28.56;100099.28;4945044;28;20417;-70
2022/08/28 10:45:59;;;;;;;15.02;5.07;;;;;;;34.70;31.79;100069.69;4971374;28;20081;-68
2022/08/28 10:48:35;;;;;;;18.58;5.32;;;;;;;34.64;27.89;100081.72;4971895;28;20045;-68
2022/08/28 10:51:30;;;;;;;14.88;4.72;;;;;;;34.73;27.67;100080.22;4972184;28;20042;-69
2022/08/28 10:54:02;;;;;;;15.70;4.88;;;;;;;34.55;27.97;100077.00;4971699;28;20039;-69
2022/08/28 10:56:50;;;;;;;19.35;5.65;;;;;;;34.64;27.66;100051.34;4969340;28;20049;-67
2022/08/28 10:59:15;;;;;;;15.80;5.00;;;;;;;34.70;27.24;100068.84;4970872;28;20062;-66
2022/08/28 11:01:45;;;;;;;19.00;5.53;;;;;;;34.83;27.87;100072.34;4971430;28;20023;-70
2022/08/28 11:04:20;;;;;;;21.95;6.53;;;;;;;35.05;27.41;100057.44;4971183;28;20093;-67
2022/08/28 11:06:51;;;;;;;10.27;4.70;;;;;;;34.84;26.36;100071.38;4969209;28;20034;-68
2022/08/28 11:09:27;;;;;;;16.42;4.82;;;;;;;34.73;26.04;100065.94;4995366;28;20528;-66
2022/08/28 11:12:01;;;;;;;13.05;4.88;;;;;;;34.78;26.60;100066.44;5029960;28;20045;-69
2022/08/28 11:14:31;;;;;;;15.20;5.18;;;;;;;34.74;26.10;100064.97;5053234;28;20072;-66
2022/08/28 11:17:03;;;;;;;11.82;5.20;;;;;;;34.66;26.40;100070.88;5053145;28;20132;-67
2022/08/28 11:19:47;;;;;;;18.20;4.97;;;;;;;34.87;26.36;100068.53;5052958;28;20047;-69
2022/08/28 11:22:16;;;;;;;13.52;5.00;;;;;;;34.86;25.45;100069.50;5052310;28;20033;-68
2022/08/28 11:24:48;;;;;;;11.65;4.68;;;;;;;34.79;25.50;100068.16;5048669;28;20033;-70
2022/08/28 11:27:28;;;;;;;12.27;5.20;;;;;;;34.63;26.17;100045.16;5053047;28;20028;-69
2022/08/28 11:29:59;;;;;;;23.45;5.35;;;;;;;34.87;25.27;100036.34;5052206;28;20116;-67
2022/08/28 11:32:33;;;;;;;12.38;4.75;;;;;;;34.95;25.56;100055.41;5045420;28;20037;-69